Time;durP1;ratioP1;P1;durP2;ratioP2;P2;SDS_P1;SDS_P2;PMS_P1;PMS_P2;Temp;Humidity;BMP_temperature;BMP_pressure;BME280_temperature;BME280_humidity;BME280_pressure;Samples;Min_cycle;Max_cycle;Signal;HPM_P1;HPM_P2
2022/01/28 00:00:36;;;;;;;7.10;1.73;;;6.40;99.90;;;;;;5089064;28;20426;-44
2022/01/28 00:03:07;;;;;;;7.70;1.97;;;6.40;99.90;;;;;;5078068;28;20462;-42
2022/01/28 00:05:36;;;;;;;10.33;2.70;;;6.20;99.90;;;;;;5088048;28;20432;-42
2022/01/28 00:08:03;;;;;;;11.50;1.83;;;6.10;99.90;;;;;;5090381;28;20418;-42
2022/01/28 00:10:30;;;;;;;7.63;2.30;;;6.20;99.90;;;;;;5089871;28;20407;-42
2022/01/28 00:15:39;;;;;;;10.07;2.30;;;6.40;99.90;;;;;;5090250;28;20475;-42
2022/01/28 00:39:25;;;;;;;8.20;2.70;;;6.40;99.90;;;;;;5090225;28;20432;-43
2022/01/28 00:41:50;;;;;;;5.40;2.70;;;6.30;99.90;;;;;;5087474;28;20640;-42
2022/01/28 00:44:16;;;;;;;5.77;2.10;;;6.30;99.90;;;;;;5090098;28;20422;-42
2022/01/28 00:46:42;;;;;;;11.27;2.97;;;6.40;99.90;;;;;;5086972;28;20449;-42
2022/01/28 00:49:07;;;;;;;8.30;2.30;;;6.40;99.90;;;;;;5087361;28;20188;-42
2022/01/28 00:51:33;;;;;;;9.97;2.60;;;6.40;99.90;;;;;;5088999;28;20176;-44
2022/01/28 00:53:59;;;;;;;8.97;3.23;;;6.30;99.90;;;;;;5089582;28;20189;-42
2022/01/28 00:56:24;;;;;;;6.47;2.40;;;6.40;99.90;;;;;;5089274;28;20204;-43
2022/01/28 00:58:50;;;;;;;10.97;3.33;;;6.30;99.90;;;;;;5089384;28;20194;-43
2022/01/28 01:01:16;;;;;;;4.83;2.07;;;6.40;99.90;;;;;;5088645;28;20184;-42
2022/01/28 01:03:42;;;;;;;6.30;2.23;;;6.20;99.90;;;;;;5074008;28;20465;-43
2022/01/28 01:06:08;;;;;;;8.70;2.53;;;6.30;99.90;;;;;;5089341;28;20796;-42
2022/01/28 01:08:33;;;;;;;10.30;2.57;;;6.30;99.90;;;;;;5076380;28;20216;-42
2022/01/28 01:10:59;;;;;;;10.43;2.43;;;6.20;99.90;;;;;;5087803;28;20187;-43
2022/01/28 01:13:25;;;;;;;5.87;2.20;;;6.30;99.90;;;;;;5089264;28;20216;-42
2022/01/28 01:15:55;;;;;;;7.00;2.70;;;6.00;99.90;;;;;;5089227;28;20326;-42
2022/01/28 01:18:27;;;;;;;13.97;2.67;;;6.00;99.90;;;;;;5075629;28;20542;-43
2022/01/28 01:21:02;;;;;;;6.03;2.10;;;6.10;99.90;;;;;;5086885;28;20423;-43
2022/01/28 01:23:34;;;;;;;7.40;2.70;;;6.20;99.90;;;;;;5088709;28;20959;-42
2022/01/28 01:28:34;;;;;;;9.37;2.50;;;6.30;99.90;;;;;;5088867;28;20556;-43
2022/01/28 01:31:03;;;;;;;7.20;2.53;;;6.10;99.90;;;;;;5087346;28;20833;-43
2022/01/28 01:33:32;;;;;;;8.20;2.40;;;6.00;99.90;;;;;;5079943;28;20821;-42
2022/01/28 01:36:01;;;;;;;10.30;4.17;;;6.00;99.90;;;;;;5088346;28;20789;-43
2022/01/28 01:38:31;;;;;;;12.37;4.43;;;5.90;99.90;;;;;;5088731;28;20549;-43
2022/01/28 01:41:00;;;;;;;8.07;2.60;;;6.10;99.90;;;;;;5087999;28;20418;-42
2022/01/28 01:53:48;;;;;;;16.00;3.47;;;6.00;99.90;;;;;;5088593;28;20422;-42
2022/01/28 01:56:14;;;;;;;7.53;2.90;;;5.80;99.90;;;;;;5088137;28;20851;-42
2022/01/28 01:58:41;;;;;;;7.17;2.20;;;5.90;99.90;;;;;;5088430;28;20517;-42
2022/01/28 02:01:06;;;;;;;8.63;2.20;;;5.70;99.90;;;;;;5087345;28;20219;-42
2022/01/28 02:03:32;;;;;;;6.70;2.10;;;5.70;99.90;;;;;;5077326;28;20479;-42
2022/01/28 02:06:00;;;;;;;7.17;2.60;;;5.70;99.90;;;;;;5088023;28;20254;-43
2022/01/28 02:08:27;;;;;;;11.47;3.33;;;5.80;99.90;;;;;;5076740;28;20181;-45
2022/01/28 02:10:58;;;;;;;8.70;2.23;;;5.90;99.90;;;;;;5085977;28;20434;-45
2022/01/28 02:13:28;;;;;;;9.33;2.40;;;5.80;99.90;;;;;;5087795;28;20548;-43
2022/01/28 02:15:56;;;;;;;10.57;2.20;;;5.80;99.90;;;;;;5087619;28;20427;-43
2022/01/28 02:18:23;;;;;;;10.37;2.70;;;6.00;99.90;;;;;;5077320;28;20476;-42
2022/01/28 02:20:51;;;;;;;15.00;3.00;;;5.90;99.90;;;;;;5080315;28;20798;-43
2022/01/28 02:23:20;;;;;;;9.97;2.57;;;5.90;99.90;;;;;;5087950;28;20514;-43
2022/01/28 02:25:45;;;;;;;8.20;2.17;;;5.90;99.90;;;;;;5087970;28;20418;-43
2022/01/28 02:28:14;;;;;;;10.60;3.77;;;6.00;99.90;;;;;;5087230;28;20429;-43
2022/01/28 02:30:40;;;;;;;16.23;3.90;;;6.00;99.90;;;;;;5086307;28;20833;-43
2022/01/28 02:33:25;;;;;;;14.33;3.00;;;6.00;99.90;;;;;;5080120;28;20443;-42
2022/01/28 02:35:52;;;;;;;15.87;3.40;;;5.90;99.90;;;;;;5081456;28;20196;-44
2022/01/28 02:38:21;;;;;;;9.50;2.70;;;6.00;99.90;;;;;;5087393;28;20455;-43
2022/01/28 02:40:54;;;;;;;11.00;2.80;;;5.80;99.90;;;;;;5087275;28;20752;-44
2022/01/28 02:45:54;;;;;;;9.07;2.73;;;6.00;99.90;;;;;;5087600;28;20415;-42
2022/01/28 02:48:28;;;;;;;8.03;2.40;;;5.80;99.90;;;;;;5078567;28;20467;-42
2022/01/28 02:53:43;;;;;;;10.57;2.87;;;5.80;99.90;;;;;;5087176;28;20513;-42
2022/01/28 02:56:20;;;;;;;8.70;2.60;;;6.00;99.90;;;;;;5087113;28;20851;-43
2022/01/28 02:58:46;;;;;;;8.97;2.53;;;5.90;99.90;;;;;;5087369;28;20430;-42
2022/01/28 03:01:15;;;;;;;6.90;2.80;;;6.00;99.90;;;;;;5086601;28;20952;-45
2022/01/28 03:03:45;;;;;;;14.73;3.07;;;5.80;99.90;;;;;;5076674;28;20513;-44
2022/01/28 03:06:13;;;;;;;9.30;2.20;;;6.00;99.90;;;;;;5087694;28;20476;-41
2022/01/28 03:08:43;;;;;;;13.60;3.00;;;5.90;99.90;;;;;;5087372;28;20530;-42
2022/01/28 03:16:30;;;;;;;8.80;2.07;;;5.90;99.90;;;;;;5087444;28;20410;-43
2022/01/28 03:19:16;;;;;;;6.80;2.53;;;5.80;99.90;;;;;;5077571;28;20477;-42
2022/01/28 03:21:44;;;;;;;8.37;2.33;;;5.90;99.90;;;;;;5086510;28;20448;-43
2022/01/28 03:24:12;;;;;;;13.60;3.17;;;6.00;99.90;;;;;;5087166;28;20465;-46
2022/01/28 03:26:38;;;;;;;7.87;2.43;;;5.70;99.90;;;;;;5090806;28;20427;-45
2022/01/28 03:29:05;;;;;;;11.40;3.13;;;5.80;99.90;;;;;;5090344;28;20803;-43
2022/01/28 03:31:30;;;;;;;8.20;2.87;;;5.60;99.90;;;;;;5090770;28;20423;-43
2022/01/28 03:33:56;;;;;;;6.97;1.93;;;5.80;99.90;;;;;;5081334;28;20439;-45
2022/01/28 03:36:22;;;;;;;13.37;3.13;;;5.80;99.90;;;;;;5088319;28;20464;-43
2022/01/28 03:38:48;;;;;;;12.30;2.77;;;5.90;99.90;;;;;;5091174;28;20517;-45
2022/01/28 03:41:17;;;;;;;9.47;1.97;;;5.70;99.90;;;;;;5089859;28;20446;-42
2022/01/28 03:43:47;;;;;;;8.50;2.43;;;5.90;99.90;;;;;;5091026;28;20472;-42
2022/01/28 03:46:14;;;;;;;13.50;3.20;;;5.90;99.90;;;;;;5089273;28;20418;-42
2022/01/28 03:48:40;;;;;;;7.23;2.00;;;5.70;99.90;;;;;;5083665;28;21116;-43
2022/01/28 03:51:06;;;;;;;8.73;3.00;;;5.80;99.90;;;;;;5085284;28;20418;-42
2022/01/28 03:53:32;;;;;;;7.60;2.40;;;5.90;99.90;;;;;;5090562;28;20428;-42
2022/01/28 03:55:58;;;;;;;12.53;2.60;;;6.00;99.90;;;;;;5090620;28;20204;-42
2022/01/28 03:58:27;;;;;;;11.80;3.10;;;5.80;99.90;;;;;;5090797;28;20426;-44
2022/01/28 04:00:54;;;;;;;9.73;2.87;;;5.80;99.90;;;;;;5089855;28;20245;-42
2022/01/28 04:11:31;;;;;;;8.47;2.70;;;5.80;99.90;;;;;;5089984;28;20436;-42
2022/01/28 04:14:01;;;;;;;13.03;3.07;;;5.70;99.90;;;;;;5090336;28;20426;-43
2022/01/28 04:17:17;;;;;;;6.57;2.40;;;5.50;99.90;;;;;;5089995;28;20422;-42
2022/01/28 04:19:15;;;;;;;7.70;2.90;;;5.80;99.90;;;;;;5081265;28;20442;-42
2022/01/28 04:21:41;;;;;;;12.50;3.10;;;5.40;99.90;;;;;;5089328;28;20777;-42
2022/01/28 04:24:06;;;;;;;11.23;3.40;;;5.40;99.90;;;;;;5090038;28;20299;-42
2022/01/28 04:26:32;;;;;;;14.20;2.77;;;5.30;99.90;;;;;;5088633;28;20272;-43
2022/01/28 04:28:57;;;;;;;7.80;2.53;;;5.60;99.90;;;;;;5088981;28;20604;-42
2022/01/28 04:31:23;;;;;;;18.60;3.00;;;5.40;99.90;;;;;;5089202;28;20936;-43
2022/01/28 04:33:49;;;;;;;9.70;3.43;;;5.60;99.90;;;;;;5081976;28;20238;-42
2022/01/28 04:36:17;;;;;;;10.40;2.60;;;5.70;99.90;;;;;;5085766;28;20220;-42
2022/01/28 04:41:23;;;;;;;6.73;2.70;;;5.60;99.90;;;;;;5089273;28;20427;-45
2022/01/28 04:43:56;;;;;;;11.23;1.97;;;6.00;99.90;;;;;;5089649;28;20497;-43
2022/01/28 04:46:33;;;;;;;8.93;3.03;;;5.70;99.90;;;;;;5089799;28;20426;-42
2022/01/28 04:49:07;;;;;;;10.43;3.30;;;6.00;99.90;;;;;;5081385;28;20809;-44
2022/01/28 04:54:46;;;;;;;6.07;2.83;;;5.90;99.90;;;;;;5089299;28;20426;-43
2022/01/28 04:57:26;;;;;;;6.03;2.23;;;5.80;99.90;;;;;;5089323;28;20456;-42
2022/01/28 05:00:45;;;;;;;8.30;3.00;;;5.80;99.90;;;;;;5076560;28;20551;-43
2022/01/28 05:03:14;;;;;;;10.43;3.70;;;5.80;99.90;;;;;;5077963;28;20496;-42
2022/01/28 05:27:02;;;;;;;9.20;3.53;;;5.80;99.90;;;;;;5088949;28;20423;-41
2022/01/28 05:29:28;;;;;;;10.80;2.70;;;5.60;99.90;;;;;;5086504;28;20433;-42
2022/01/28 05:31:54;;;;;;;7.53;2.67;;;5.90;99.90;;;;;;5088258;28;20426;-44
2022/01/28 05:34:23;;;;;;;12.23;2.97;;;5.80;99.90;;;;;;5079859;28;20625;-42
2022/01/28 05:36:49;;;;;;;13.43;2.50;;;5.90;99.90;;;;;;5087824;28;20242;-42
2022/01/28 05:39:15;;;;;;;11.70;3.23;;;5.60;99.90;;;;;;5087270;28;20418;-43
2022/01/28 05:41:41;;;;;;;7.33;2.30;;;5.70;99.90;;;;;;5087974;28;20416;-42
2022/01/28 05:44:06;;;;;;;10.87;2.87;;;5.80;99.90;;;;;;5088453;28;20216;-42
2022/01/28 05:46:32;;;;;;;7.17;2.53;;;5.60;99.90;;;;;;5088841;28;20653;-42
2022/01/28 05:48:58;;;;;;;7.40;2.13;;;5.80;99.90;;;;;;5076734;28;21012;-42
2022/01/28 05:51:24;;;;;;;6.10;2.30;;;5.60;99.90;;;;;;5079344;28;20620;-43
2022/01/28 05:53:50;;;;;;;10.60;2.07;;;5.60;99.90;;;;;;5081500;28;20192;-44
2022/01/28 05:56:16;;;;;;;8.37;2.00;;;5.70;99.90;;;;;;5088068;28;20442;-42
2022/01/28 05:58:42;;;;;;;7.67;3.00;;;5.50;99.90;;;;;;5082952;28;20957;-45
2022/01/28 06:01:08;;;;;;;9.30;2.50;;;5.50;99.90;;;;;;5087537;28;20199;-43
2022/01/28 06:03:33;;;;;;;10.60;3.07;;;5.40;99.90;;;;;;5087391;28;20256;-44
2022/01/28 06:05:59;;;;;;;6.80;3.00;;;5.50;99.90;;;;;;5074053;28;20187;-42
2022/01/28 06:08:25;;;;;;;7.77;2.80;;;5.70;99.90;;;;;;5088175;28;20570;-42
2022/01/28 06:10:51;;;;;;;7.50;2.37;;;5.60;99.90;;;;;;5087475;28;20690;-44
2022/01/28 06:13:16;;;;;;;7.07;2.43;;;5.50;99.90;;;;;;5086696;28;20196;-43
2022/01/28 06:15:43;;;;;;;12.00;2.50;;;5.60;99.90;;;;;;5086922;28;20203;-44
2022/01/28 06:18:12;;;;;;;8.73;3.90;;;5.40;99.90;;;;;;5088043;28;20196;-43
2022/01/28 06:20:38;;;;;;;10.80;2.60;;;5.70;99.90;;;;;;5077194;28;20442;-43
2022/01/28 06:23:04;;;;;;;15.07;2.93;;;5.50;99.90;;;;;;5087642;28;20832;-43
2022/01/28 06:25:30;;;;;;;8.60;2.23;;;5.60;99.90;;;;;;5087722;28;20187;-42
2022/01/28 06:27:56;;;;;;;9.57;2.50;;;5.60;99.90;;;;;;5087564;28;20445;-42
2022/01/28 06:30:22;;;;;;;11.53;2.60;;;5.60;99.90;;;;;;5083366;28;20517;-46
2022/01/28 06:32:49;;;;;;;7.53;2.30;;;5.40;99.90;;;;;;5076355;28;20510;-43
2022/01/28 06:35:15;;;;;;;13.90;3.60;;;5.70;99.90;;;;;;5076181;28;20443;-44
2022/01/28 06:37:44;;;;;;;7.83;2.53;;;5.70;99.90;;;;;;5087362;28;20779;-44
2022/01/28 06:40:16;;;;;;;6.90;2.30;;;5.50;99.90;;;;;;5086505;28;20782;-43
2022/01/28 06:42:42;;;;;;;7.73;2.83;;;5.60;99.90;;;;;;5083675;28;21007;-44
2022/01/28 06:45:09;;;;;;;10.63;3.00;;;5.70;99.90;;;;;;5086114;28;20493;-42
2022/01/28 06:47:35;;;;;;;11.00;2.57;;;5.30;99.90;;;;;;5086048;28;20448;-42
2022/01/28 06:50:05;;;;;;;12.97;2.80;;;5.30;99.90;;;;;;5082072;28;20430;-47
2022/01/28 06:52:34;;;;;;;7.70;2.53;;;5.50;99.90;;;;;;5084958;28;20423;-43
2022/01/28 06:55:01;;;;;;;7.30;2.53;;;5.20;99.90;;;;;;5087156;28;20556;-42
2022/01/28 06:57:28;;;;;;;9.87;2.73;;;5.70;99.90;;;;;;5087396;28;20446;-43
2022/01/28 06:59:54;;;;;;;7.67;2.90;;;5.40;99.90;;;;;;5087177;28;20554;-42
2022/01/28 07:02:20;;;;;;;7.30;3.23;;;5.40;99.90;;;;;;5080947;28;20493;-42
2022/01/28 07:04:46;;;;;;;8.63;2.80;;;5.20;99.90;;;;;;5077769;28;20805;-41
2022/01/28 07:07:11;;;;;;;11.33;2.50;;;5.40;99.90;;;;;;5081327;28;20192;-42
2022/01/28 07:09:37;;;;;;;6.30;2.60;;;5.40;99.90;;;;;;5085451;28;20243;-42
2022/01/28 07:12:03;;;;;;;5.80;2.93;;;5.30;99.90;;;;;;5086708;28;20256;-42
2022/01/28 07:14:29;;;;;;;8.33;2.57;;;5.30;99.90;;;;;;5085184;28;20652;-42
2022/01/28 07:16:55;;;;;;;7.63;2.80;;;5.50;99.90;;;;;;5086595;28;20924;-42
2022/01/28 07:19:21;;;;;;;9.67;2.97;;;5.50;99.90;;;;;;5080624;28;20438;-42
2022/01/28 07:21:46;;;;;;;8.70;2.50;;;5.30;99.90;;;;;;5086587;28;20190;-42
2022/01/28 07:24:12;;;;;;;8.47;2.83;;;5.60;99.90;;;;;;5087565;28;20208;-48
2022/01/28 07:26:38;;;;;;;9.30;3.90;;;5.40;99.90;;;;;;5085712;28;20184;-42
2022/01/28 07:29:04;;;;;;;10.57;2.60;;;5.40;99.90;;;;;;5085325;28;20184;-42
2022/01/28 07:31:30;;;;;;;7.63;2.83;;;5.60;99.90;;;;;;5086367;28;20502;-42
2022/01/28 07:33:57;;;;;;;7.43;3.00;;;5.40;99.90;;;;;;5087580;28;20192;-43
2022/01/28 07:36:22;;;;;;;11.57;3.40;;;5.50;99.90;;;;;;5061472;28;20435;-42
2022/01/28 07:38:48;;;;;;;7.70;3.13;;;5.30;99.90;;;;;;5086963;28;20432;-44
2022/01/28 07:41:14;;;;;;;10.37;3.50;;;5.60;99.90;;;;;;5086305;28;20263;-44
2022/01/28 07:43:42;;;;;;;11.23;3.27;;;5.40;99.90;;;;;;5086695;28;20224;-42
2022/01/28 07:46:07;;;;;;;13.37;2.70;;;5.30;99.90;;;;;;5086714;28;20181;-43
2022/01/28 07:48:33;;;;;;;11.83;3.17;;;5.20;99.90;;;;;;5086000;28;20419;-42
2022/01/28 07:50:59;;;;;;;20.43;4.07;;;5.50;99.90;;;;;;5076161;28;20184;-43
2022/01/28 07:53:25;;;;;;;9.47;3.53;;;5.20;99.90;;;;;;5086761;28;20388;-42
2022/01/28 07:55:50;;;;;;;6.80;2.97;;;5.10;99.90;;;;;;5086766;28;20200;-42
2022/01/28 07:58:16;;;;;;;13.30;5.23;;;5.50;99.90;;;;;;5086441;28;20220;-45
2022/01/28 08:00:42;;;;;;;12.90;4.37;;;5.10;99.90;;;;;;5086056;28;20226;-42
2022/01/28 08:03:08;;;;;;;7.30;2.90;;;5.20;99.90;;;;;;5086205;28;20204;-44
2022/01/28 08:05:34;;;;;;;13.23;3.53;;;5.40;99.90;;;;;;5079284;28;20462;-42
2022/01/28 08:08:04;;;;;;;13.93;4.07;;;5.50;99.90;;;;;;5084391;28;20457;-43
2022/01/28 08:10:30;;;;;;;12.90;3.80;;;5.40;99.90;;;;;;5085428;28;20501;-44
2022/01/28 08:12:56;;;;;;;7.30;2.80;;;5.70;99.90;;;;;;5089071;28;20507;-43
2022/01/28 08:15:22;;;;;;;14.73;3.50;;;5.60;99.90;;;;;;5090522;28;20434;-42
2022/01/28 08:17:49;;;;;;;12.40;3.90;;;5.50;99.90;;;;;;5090254;28;20184;-43
2022/01/28 08:20:15;;;;;;;7.10;2.73;;;5.40;99.90;;;;;;5083897;28;20431;-43
2022/01/28 08:22:57;;;;;;;13.77;3.23;;;5.60;99.90;;;;;;5082863;28;20819;-43
2022/01/28 08:25:24;;;;;;;10.27;3.30;;;5.50;99.90;;;;;;5090361;28;20191;-42
2022/01/28 08:27:51;;;;;;;16.57;3.87;;;5.50;99.90;;;;;;5090326;28;20879;-43
2022/01/28 08:30:20;;;;;;;6.80;2.80;;;5.50;99.90;;;;;;5088299;28;20476;-42
2022/01/28 08:32:46;;;;;;;13.57;4.10;;;5.60;99.90;;;;;;5089770;28;20459;-43
2022/01/28 08:35:12;;;;;;;11.03;4.40;;;5.90;99.90;;;;;;5083429;28;20459;-43
2022/01/28 08:37:39;;;;;;;13.83;4.20;;;5.70;99.90;;;;;;5084032;28;20448;-42
2022/01/28 08:40:06;;;;;;;14.70;5.80;;;5.90;99.90;;;;;;5089278;28;20419;-43
2022/01/28 08:42:32;;;;;;;6.70;3.10;;;5.70;99.90;;;;;;5090071;28;20458;-42
2022/01/28 08:44:58;;;;;;;14.83;4.00;;;5.70;99.90;;;;;;5089574;28;20476;-45
2022/01/28 08:47:24;;;;;;;11.30;3.20;;;6.00;99.90;;;;;;5089553;28;20936;-42
2022/01/28 08:49:49;;;;;;;7.53;2.80;;;6.00;99.90;;;;;;5086295;28;20191;-43
2022/01/28 08:52:15;;;;;;;7.93;3.27;;;5.80;99.90;;;;;;5084619;28;20476;-43
2022/01/28 08:54:41;;;;;;;9.03;3.13;;;6.00;99.90;;;;;;5089777;28;20191;-43
2022/01/28 08:57:08;;;;;;;16.37;3.87;;;6.00;99.90;;;;;;5089557;28;20545;-40
2022/01/28 08:59:33;;;;;;;13.43;3.40;;;5.90;99.90;;;;;;5088994;28;20837;-41
2022/01/28 09:01:59;;;;;;;10.30;4.23;;;6.00;99.90;;;;;;5088955;28;20423;-42
2022/01/28 09:04:25;;;;;;;12.93;2.90;;;6.10;99.90;;;;;;5089585;28;20214;-41
2022/01/28 09:06:51;;;;;;;6.70;2.10;;;6.10;99.90;;;;;;5079277;28;20480;-41
2022/01/28 09:09:19;;;;;;;12.87;3.47;;;6.40;99.90;;;;;;5089668;28;20572;-40
2022/01/28 09:14:24;;;;;;;10.57;3.23;;;6.60;99.90;;;;;;5078111;28;20711;-40
2022/01/28 09:16:52;;;;;;;9.13;3.20;;;6.90;99.90;;;;;;5088964;28;20947;-41
2022/01/28 09:19:18;;;;;;;13.83;3.93;;;7.10;99.90;;;;;;5089450;28;20430;-41
2022/01/28 09:21:44;;;;;;;8.10;3.33;;;7.60;99.90;;;;;;5076659;28;20443;-40
2022/01/28 09:24:10;;;;;;;8.47;2.83;;;7.60;99.90;;;;;;5089329;28;20458;-40
2022/01/28 09:26:36;;;;;;;23.70;3.50;;;8.10;99.90;;;;;;5089036;28;20418;-40
2022/01/28 09:29:03;;;;;;;11.10;3.20;;;8.30;99.90;;;;;;5087319;28;20517;-40
2022/01/28 09:31:29;;;;;;;8.30;2.30;;;8.60;99.90;;;;;;5088195;28;20916;-40
2022/01/28 09:33:55;;;;;;;12.00;3.03;;;8.70;99.90;;;;;;5089305;28;20454;-41
2022/01/28 09:36:21;;;;;;;8.93;3.43;;;8.80;99.90;;;;;;5078732;28;20890;-40
2022/01/28 09:38:48;;;;;;;14.13;3.07;;;8.80;99.90;;;;;;5088751;28;20211;-41
2022/01/28 09:41:15;;;;;;;10.07;2.93;;;8.90;99.90;;;;;;5088243;28;20423;-41
2022/01/28 09:43:43;;;;;;;12.40;2.90;;;9.00;99.90;;;;;;5088250;28;20519;-40
2022/01/28 09:46:09;;;;;;;6.60;3.57;;;9.40;99.90;;;;;;5088817;28;20992;-40
2022/01/28 09:48:35;;;;;;;9.03;3.00;;;9.30;99.90;;;;;;5088641;28;20517;-40
2022/01/28 09:51:02;;;;;;;19.53;4.10;;;9.40;99.90;;;;;;5080560;28;20435;-40
2022/01/28 09:53:28;;;;;;;8.40;2.97;;;9.80;99.90;;;;;;5086837;28;20259;-41
2022/01/28 09:55:55;;;;;;;12.23;2.97;;;9.70;99.90;;;;;;5088516;28;20447;-40
2022/01/28 09:58:21;;;;;;;14.77;3.87;;;9.70;99.90;;;;;;5088272;28;20934;-40
2022/01/28 10:00:46;;;;;;;6.50;2.60;;;9.60;99.90;;;;;;5087721;28;20430;-43
2022/01/28 10:03:14;;;;;;;8.10;3.10;;;9.40;99.90;;;;;;5088302;28;20633;-40
2022/01/28 10:05:51;;;;;;;8.67;3.53;;;9.30;99.90;;;;;;5086227;28;20243;-41
2022/01/28 10:08:22;;;;;;;9.40;3.53;;;9.60;99.90;;;;;;5084472;28;20487;-42
2022/01/28 10:10:48;;;;;;;11.20;2.93;;;9.80;99.90;;;;;;5085050;28;20418;-43
2022/01/28 10:13:52;;;;;;;11.23;3.40;;;9.70;99.90;;;;;;5087941;28;20422;-43
2022/01/28 10:16:27;;;;;;;15.73;3.00;;;9.80;99.90;;;;;;5087877;28;20312;-41
2022/01/28 10:19:07;;;;;;;10.33;3.53;;;10.00;99.90;;;;;;5087964;28;20883;-40
2022/01/28 10:21:38;;;;;;;9.47;3.30;;;10.40;99.90;;;;;;5076055;28;20435;-41
2022/01/28 10:24:15;;;;;;;9.50;3.00;;;10.70;99.90;;;;;;5081276;28;20454;-42
2022/01/28 10:26:59;;;;;;;10.20;2.93;;;11.00;99.90;;;;;;5087957;28;20461;-40
2022/01/28 10:29:24;;;;;;;10.50;2.70;;;11.40;99.90;;;;;;5086326;28;20425;-40
2022/01/28 10:31:59;;;;;;;9.40;3.30;;;11.50;99.90;;;;;;5087206;28;20422;-40
2022/01/28 10:34:46;;;;;;;11.60;3.03;;;12.00;99.90;;;;;;5087484;28;20192;-41
2022/01/28 10:37:15;;;;;;;7.70;2.83;;;12.00;99.90;;;;;;5073830;28;20842;-41
2022/01/28 10:39:53;;;;;;;8.30;3.27;;;11.60;99.90;;;;;;5086715;28;20429;-40
2022/01/28 10:42:42;;;;;;;13.80;3.90;;;11.50;99.90;;;;;;5087795;28;20505;-40
2022/01/28 10:45:14;;;;;;;7.87;2.77;;;11.40;99.90;;;;;;5087552;28;20418;-40
2022/01/28 10:47:53;;;;;;;16.50;3.93;;;11.20;99.90;;;;;;5087718;28;20478;-40
2022/01/28 10:50:23;;;;;;;10.73;3.00;;;10.60;99.90;;;;;;5086670;28;20770;-40
2022/01/28 10:53:11;;;;;;;10.20;3.10;;;10.20;99.90;;;;;;5075467;28;21187;-41
2022/01/28 10:55:54;;;;;;;11.43;2.83;;;10.00;99.90;;;;;;5087499;28;20410;-40
2022/01/28 10:58:24;;;;;;;13.67;3.77;;;10.00;99.90;;;;;;5087554;28;20414;-43
2022/01/28 11:00:58;;;;;;;10.23;3.00;;;10.00;99.90;;;;;;5086794;28;21023;-40
2022/01/28 11:03:28;;;;;;;11.67;3.57;;;9.70;99.90;;;;;;5087559;28;20466;-41
2022/01/28 11:05:58;;;;;;;12.90;4.50;;;9.50;99.90;;;;;;5083895;28;20443;-41
2022/01/28 11:08:26;;;;;;;9.80;3.30;;;9.50;99.90;;;;;;5081403;28;20422;-40
2022/01/28 11:10:52;;;;;;;8.73;3.20;;;9.10;99.90;;;;;;5086937;28;20436;-41
2022/01/28 11:13:18;;;;;;;16.00;3.40;;;9.00;99.90;;;;;;5087052;28;20434;-42
2022/01/28 11:15:45;;;;;;;10.70;2.50;;;9.10;99.90;;;;;;5087244;28;20666;-40
2022/01/28 11:18:11;;;;;;;11.17;3.33;;;9.00;99.90;;;;;;5086088;28;20517;-42
2022/01/28 11:20:57;;;;;;;13.10;3.43;;;9.30;99.90;;;;;;5086778;28;20418;-40
2022/01/28 11:23:55;;;;;;;13.53;3.27;;;8.80;99.90;;;;;;5079800;28;20481;-40
2022/01/28 11:26:49;;;;;;;11.33;3.40;;;8.80;99.90;;;;;;5087381;28;20453;-40
2022/01/28 11:29:28;;;;;;;14.23;3.47;;;8.90;99.90;;;;;;5051687;28;20778;-41
2022/01/28 11:31:56;;;;;;;8.47;2.40;;;8.60;99.90;;;;;;5086256;28;20418;-42
2022/01/28 11:34:24;;;;;;;16.80;3.90;;;8.50;99.90;;;;;;5087301;28;20418;-41
2022/01/28 11:36:53;;;;;;;8.73;3.23;;;8.30;99.90;;;;;;5079176;28;20477;-41
2022/01/28 11:39:33;;;;;;;8.10;3.90;;;8.40;99.90;;;;;;5083587;28;20423;-42
2022/01/28 11:42:07;;;;;;;12.87;3.57;;;8.50;99.90;;;;;;5081845;28;20417;-41
2022/01/28 11:44:54;;;;;;;9.73;3.60;;;8.50;99.90;;;;;;5086973;28;20437;-42
2022/01/28 11:47:37;;;;;;;10.00;3.40;;;8.70;99.90;;;;;;5088701;28;20437;-40
2022/01/28 11:50:13;;;;;;;7.23;2.27;;;8.80;99.90;;;;;;5089218;28;20446;-42
2022/01/28 11:52:46;;;;;;;7.83;2.63;;;8.80;99.90;;;;;;5078932;28;20422;-40
2022/01/28 11:55:15;;;;;;;16.53;3.40;;;9.20;99.90;;;;;;5090802;28;20445;-41
2022/01/28 11:58:02;;;;;;;8.70;2.90;;;9.10;99.90;;;;;;5089615;28;20442;-40
2022/01/28 12:00:32;;;;;;;9.27;3.33;;;9.10;99.90;;;;;;5090036;28;20426;-40
2022/01/28 12:02:58;;;;;;;9.30;2.77;;;9.30;99.90;;;;;;5077953;28;20497;-41
2022/01/28 12:05:30;;;;;;;13.00;3.03;;;9.30;99.90;;;;;;5090402;28;20433;-41
2022/01/28 12:08:04;;;;;;;14.20;3.10;;;9.30;99.90;;;;;;5084584;28;20577;-43
2022/01/28 12:10:32;;;;;;;10.33;3.00;;;9.70;99.90;;;;;;5089832;28;20505;-40
2022/01/28 12:13:03;;;;;;;9.17;2.30;;;9.90;99.90;;;;;;5090499;28;20456;-40
2022/01/28 12:15:31;;;;;;;8.70;2.60;;;10.70;99.90;;;;;;5090457;28;20426;-41
2022/01/28 12:18:10;;;;;;;12.93;3.23;;;11.10;99.90;;;;;;5090220;28;20749;-41
2022/01/28 12:20:35;;;;;;;13.13;3.00;;;11.60;99.90;;;;;;5089690;28;20422;-41
2022/01/28 12:23:03;;;;;;;8.43;2.77;;;12.00;99.70;;;;;;5080561;28;20491;-41
2022/01/28 12:25:35;;;;;;;11.30;3.30;;;11.90;99.50;;;;;;5089910;28;20238;-41
2022/01/28 12:28:24;;;;;;;17.77;3.93;;;12.20;99.10;;;;;;5090051;28;20416;-41
2022/01/28 12:30:57;;;;;;;5.57;2.50;;;12.60;98.10;;;;;;5087812;28;20887;-44
2022/01/28 12:33:24;;;;;;;12.70;3.20;;;12.80;97.90;;;;;;5089967;28;20793;-41
2022/01/28 12:35:52;;;;;;;8.73;3.23;;;12.90;96.90;;;;;;5088648;28;20517;-40
2022/01/28 12:38:24;;;;;;;6.10;2.30;;;13.00;96.80;;;;;;5077136;28;21020;-40
2022/01/28 12:40:53;;;;;;;6.27;2.33;;;12.80;96.90;;;;;;5089222;28;20492;-40
2022/01/28 12:43:20;;;;;;;13.33;3.20;;;12.20;96.60;;;;;;5089677;28;20473;-40
2022/01/28 12:45:57;;;;;;;8.97;2.87;;;11.80;97.30;;;;;;5090143;28;20429;-41
2022/01/28 12:48:23;;;;;;;8.27;2.40;;;11.60;98.50;;;;;;5077240;28;21093;-40
2022/01/28 12:50:50;;;;;;;9.80;2.53;;;11.40;98.20;;;;;;5089240;28;20448;-42
2022/01/28 12:53:40;;;;;;;7.33;2.70;;;10.90;98.70;;;;;;5074540;28;20188;-40
2022/01/28 12:56:07;;;;;;;10.87;2.63;;;10.70;99.90;;;;;;5087123;28;20456;-41
2022/01/28 12:58:40;;;;;;;11.50;3.07;;;10.60;99.90;;;;;;5089103;28;20452;-40
2022/01/28 13:01:10;;;;;;;14.47;3.30;;;10.20;99.90;;;;;;5089032;28;20814;-41
2022/01/28 13:03:46;;;;;;;18.23;3.07;;;9.90;99.90;;;;;;5088949;28;20502;-40
2022/01/28 13:06:29;;;;;;;12.50;3.27;;;9.60;99.90;;;;;;5089744;28;20433;-40
2022/01/28 13:08:56;;;;;;;11.03;3.00;;;9.60;99.90;;;;;;5079367;28;20528;-40
2022/01/28 13:11:23;;;;;;;11.80;3.00;;;9.50;99.90;;;;;;5088844;28;20462;-40
2022/01/28 13:13:57;;;;;;;8.00;2.50;;;9.70;99.90;;;;;;5088212;28;20519;-41
2022/01/28 13:16:43;;;;;;;7.77;2.97;;;9.60;99.90;;;;;;5089464;28;20422;-42
2022/01/28 13:19:11;;;;;;;11.23;3.20;;;9.60;99.90;;;;;;5089195;28;20434;-40
2022/01/28 13:21:38;;;;;;;10.97;3.43;;;9.60;99.90;;;;;;5089070;28;20448;-41
2022/01/28 13:24:11;;;;;;;10.70;4.07;;;9.70;99.90;;;;;;5094041;28;20857;-40
2022/01/28 13:26:56;;;;;;;10.27;3.23;;;9.30;99.90;;;;;;5088906;28;20418;-40
2022/01/28 13:29:34;;;;;;;8.00;3.90;;;9.30;99.90;;;;;;5088146;28;20430;-40
2022/01/28 13:32:03;;;;;;;7.80;3.23;;;9.20;99.90;;;;;;5088819;28;20422;-40
2022/01/28 13:34:41;;;;;;;11.23;3.80;;;9.10;99.90;;;;;;5088805;28;20445;-40
2022/01/28 13:37:08;;;;;;;11.23;3.47;;;9.00;99.90;;;;;;5084777;28;20450;-40
2022/01/28 13:39:42;;;;;;;6.70;2.63;;;9.10;99.90;;;;;;5086412;28;20560;-41
2022/01/28 13:42:13;;;;;;;11.07;3.90;;;9.20;99.90;;;;;;5088767;28;20414;-40
2022/01/28 13:44:42;;;;;;;11.13;2.93;;;9.00;99.90;;;;;;5088613;28;20872;-40
2022/01/28 13:47:09;;;;;;;12.00;3.40;;;8.90;99.90;;;;;;5088763;28;20422;-42
2022/01/28 13:49:37;;;;;;;10.40;4.20;;;8.70;99.90;;;;;;5088067;28;20426;-40
2022/01/28 13:52:09;;;;;;;11.40;3.03;;;8.80;99.90;;;;;;5087085;28;20433;-42
2022/01/28 13:54:35;;;;;;;9.97;3.20;;;8.90;99.90;;;;;;5083916;28;20418;-42
2022/01/28 13:57:04;;;;;;;10.30;3.10;;;8.70;99.90;;;;;;5088348;28;20844;-40
2022/01/28 13:59:32;;;;;;;8.50;3.80;;;8.50;99.90;;;;;;5088518;28;20680;-40
2022/01/28 14:02:01;;;;;;;9.70;3.00;;;8.30;99.90;;;;;;5087774;28;20913;-40
2022/01/28 14:04:38;;;;;;;9.27;3.30;;;8.30;99.90;;;;;;5088456;28;20473;-40
2022/01/28 14:07:17;;;;;;;5.40;2.27;;;8.50;99.90;;;;;;5087310;28;20503;-40
2022/01/28 14:09:56;;;;;;;9.40;2.63;;;8.30;99.90;;;;;;5084124;28;20905;-40
2022/01/28 14:12:45;;;;;;;4.83;2.33;;;8.80;99.90;;;;;;5086684;28;20828;-40
2022/01/28 14:15:32;;;;;;;11.93;3.43;;;8.80;99.90;;;;;;5088328;28;20415;-40
2022/01/28 14:18:01;;;;;;;10.17;4.50;;;9.20;99.90;;;;;;5087989;28;20431;-40
2022/01/28 14:20:27;;;;;;;12.40;4.43;;;9.20;99.90;;;;;;5088010;28;20593;-40
2022/01/28 14:22:53;;;;;;;7.77;3.80;;;9.20;99.90;;;;;;5081507;28;20835;-40
2022/01/28 14:25:20;;;;;;;8.60;4.60;;;9.10;99.90;;;;;;5084972;28;20426;-40
2022/01/28 14:28:11;;;;;;;16.97;7.00;;;9.10;99.90;;;;;;5086610;28;20750;-42